sensor_id;sensor_type;location;lat;lon;timestamp;P1;durP1;ratioP1;P2;durP2;ratioP2
13477;SDS011;12598;62.382;17.344;2023-02-01T00:00:50;1.02;;;0.50;;
13477;SDS011;12598;62.382;17.344;2023-02-01T00:01:51;0.90;;;0.60;;
13477;SDS011;12598;62.382;17.344;2023-02-01T00:02:53;0.40;;;0.40;;
13477;SDS011;12598;62.382;17.344;2023-02-01T00:03:55;0.68;;;0.50;;
13477;SDS011;12598;62.382;17.344;2023-02-01T00:04:57;0.90;;;0.60;;
13477;SDS011;12598;62.382;17.344;2023-02-01T00:05:59;0.63;;;0.40;;
13477;SDS011;12598;62.382;17.344;2023-02-01T00:07:01;0.50;;;0.30;;
13477;SDS011;12598;62.382;17.344;2023-02-01T00:08:03;0.47;;;0.40;;
13477;SDS011;12598;62.382;17.344;2023-02-01T00:09:05;0.90;;;0.50;;
13477;SDS011;12598;62.382;17.344;2023-02-01T00:10:08;0.63;;;0.30;;
13477;SDS011;12598;62.382;17.344;2023-02-01T00:11:11;1.27;;;0.50;;
13477;SDS011;12598;62.382;17.344;2023-02-01T00:12:13;0.55;;;0.40;;
13477;SDS011;12598;62.382;17.344;2023-02-01T00:13:15;0.68;;;0.45;;
13477;SDS011;12598;62.382;17.344;2023-02-01T00:14:17;0.82;;;0.50;;
13477;SDS011;12598;62.382;17.344;2023-02-01T00:15:19;0.80;;;0.50;;
13477;SDS011;12598;62.382;17.344;2023-02-01T00:16:23;0.68;;;0.50;;
13477;SDS011;12598;62.382;17.344;2023-02-01T00:17:30;0.75;;;0.45;;
13477;SDS011;12598;62.382;17.344;2023-02-01T00:18:32;0.57;;;0.57;;
13477;SDS011;12598;62.382;17.344;2023-02-01T00:19:34;1.08;;;0.40;;
13477;SDS011;12598;62.382;17.344;2023-02-01T00:20:36;0.57;;;0.30;;
13477;SDS011;12598;62.382;17.344;2023-02-01T00:21:38;2.28;;;0.63;;
13477;SDS011;12598;62.382;17.344;2023-02-01T00:22:40;0.80;;;0.40;;
13477;SDS011;12598;62.382;17.344;2023-02-01T00:23:42;0.57;;;0.40;;
13477;SDS011;12598;62.382;17.344;2023-02-01T00:24:44;0.47;;;0.22;;
13477;SDS011;12598;62.382;17.344;2023-02-01T00:25:46;0.30;;;0.30;;
13477;SDS011;12598;62.382;17.344;2023-02-01T00:26:47;0.63;;;0.45;;
13477;SDS011;12598;62.382;17.344;2023-02-01T00:27:50;0.35;;;0.30;;
13477;SDS011;12598;62.382;17.344;2023-02-01T00:28:52;0.70;;;0.40;;
13477;SDS011;12598;62.382;17.344;2023-02-01T00:29:55;0.60;;;0.40;;
13477;SDS011;12598;62.382;17.344;2023-02-01T00:31:00;1.13;;;0.55;;
13477;SDS011;12598;62.382;17.344;2023-02-01T00:32:03;0.47;;;0.43;;
13477;SDS011;12598;62.382;17.344;2023-02-01T00:33:05;0.75;;;0.60;;
13477;SDS011;12598;62.382;17.344;2023-02-01T00:34:08;0.80;;;0.68;;
13477;SDS011;12598;62.382;17.344;2023-02-01T00:35:13;1.08;;;0.40;;
13477;SDS011;12598;62.382;17.344;2023-02-01T00:36:15;1.23;;;0.40;;
13477;SDS011;12598;62.382;17.344;2023-02-01T00:37:17;0.82;;;0.50;;
13477;SDS011;12598;62.382;17.344;2023-02-01T00:38:19;0.52;;;0.40;;
13477;SDS011;12598;62.382;17.344;2023-02-01T00:39:21;1.08;;;0.50;;
13477;SDS011;12598;62.382;17.344;2023-02-01T00:40:23;0.85;;;0.50;;
13477;SDS011;12598;62.382;17.344;2023-02-01T00:41:25;0.70;;;0.40;;
13477;SDS011;12598;62.382;17.344;2023-02-01T00:42:27;0.40;;;0.40;;
13477;SDS011;12598;62.382;17.344;2023-02-01T00:43:30;1.10;;;0.47;;
13477;SDS011;12598;62.382;17.344;2023-02-01T00:44:32;1.02;;;0.40;;
13477;SDS011;12598;62.382;17.344;2023-02-01T00:45:36;0.52;;;0.40;;
13477;SDS011;12598;62.382;17.344;2023-02-01T00:46:38;0.60;;;0.40;;
13477;SDS011;12598;62.382;17.344;2023-02-01T00:47:40;0.45;;;0.40;;
13477;SDS011;12598;62.382;17.344;2023-02-01T00:48:42;0.88;;;0.55;;
13477;SDS011;12598;62.382;17.344;2023-02-01T00:49:44;0.65;;;0.60;;
13477;SDS011;12598;62.382;17.344;2023-02-01T00:50:46;0.65;;;0.50;;
13477;SDS011;12598;62.382;17.344;2023-02-01T00:51:48;0.88;;;0.40;;
13477;SDS011;12598;62.382;17.344;2023-02-01T00:52:50;0.70;;;0.40;;
13477;SDS011;12598;62.382;17.344;2023-02-01T00:53:52;0.63;;;0.38;;
13477;SDS011;12598;62.382;17.344;2023-02-01T00:54:54;0.57;;;0.50;;
13477;SDS011;12598;62.382;17.344;2023-02-01T00:55:56;0.50;;;0.40;;
13477;SDS011;12598;62.382;17.344;2023-02-01T00:56:58;1.08;;;0.57;;
13477;SDS011;12598;62.382;17.344;2023-02-01T00:58:00;0.65;;;0.40;;
13477;SDS011;12598;62.382;17.344;2023-02-01T00:59:02;0.95;;;0.50;;
13477;SDS011;12598;62.382;17.344;2023-02-01T01:00:04;0.82;;;0.60;;
13477;SDS011;12598;62.382;17.344;2023-02-01T01:01:08;0.82;;;0.40;;
13477;SDS011;12598;62.382;17.344;2023-02-01T01:02:10;0.57;;;0.40;;
13477;SDS011;12598;62.382;17.344;2023-02-01T01:03:13;0.80;;;0.47;;
13477;SDS011;12598;62.382;17.344;2023-02-01T01:04:22;0.60;;;0.60;;
13477;SDS011;12598;62.382;17.344;2023-02-01T01:05:23;0.60;;;0.32;;
13477;SDS011;12598;62.382;17.344;2023-02-01T01:06:26;0.50;;;0.40;;
13477;SDS011;12598;62.382;17.344;2023-02-01T01:07:30;0.70;;;0.57;;
13477;SDS011;12598;62.382;17.344;2023-02-01T01:08:32;1.05;;;0.60;;
13477;SDS011;12598;62.382;17.344;2023-02-01T01:09:34;0.45;;;0.45;;
13477;SDS011;12598;62.382;17.344;2023-02-01T01:10:36;0.52;;;0.45;;
13477;SDS011;12598;62.382;17.344;2023-02-01T01:11:38;0.55;;;0.40;;
13477;SDS011;12598;62.382;17.344;2023-02-01T01:12:40;0.63;;;0.50;;
13477;SDS011;12598;62.382;17.344;2023-02-01T01:13:43;0.50;;;0.40;;
13477;SDS011;12598;62.382;17.344;2023-02-01T01:14:47;0.93;;;0.45;;
13477;SDS011;12598;62.382;17.344;2023-02-01T01:15:49;0.52;;;0.50;;
13477;SDS011;12598;62.382;17.344;2023-02-01T01:16:51;0.95;;;0.57;;
13477;SDS011;12598;62.382;17.344;2023-02-01T01:17:53;0.98;;;0.60;;
13477;SDS011;12598;62.382;17.344;2023-02-01T01:18:55;0.95;;;0.30;;
13477;SDS011;12598;62.382;17.344;2023-02-01T01:19:57;0.90;;;0.50;;
13477;SDS011;12598;62.382;17.344;2023-02-01T01:21:01;0.52;;;0.45;;
13477;SDS011;12598;62.382;17.344;2023-02-01T01:22:03;0.73;;;0.30;;
13477;SDS011;12598;62.382;17.344;2023-02-01T01:23:05;0.70;;;0.40;;
13477;SDS011;12598;62.382;17.344;2023-02-01T01:24:08;0.88;;;0.70;;
13477;SDS011;12598;62.382;17.344;2023-02-01T01:25:10;0.77;;;0.40;;
13477;SDS011;12598;62.382;17.344;2023-02-01T01:26:14;0.68;;;0.50;;
13477;SDS011;12598;62.382;17.344;2023-02-01T01:27:21;0.90;;;0.50;;
13477;SDS011;12598;62.382;17.344;2023-02-01T01:28:25;0.80;;;0.50;;
13477;SDS011;12598;62.382;17.344;2023-02-01T01:29:27;1.48;;;0.63;;
13477;SDS011;12598;62.382;17.344;2023-02-01T01:30:29;1.13;;;0.40;;
13477;SDS011;12598;62.382;17.344;2023-02-01T01:31:31;1.02;;;0.50;;
13477;SDS011;12598;62.382;17.344;2023-02-01T01:32:33;0.95;;;0.55;;
13477;SDS011;12598;62.382;17.344;2023-02-01T01:33:35;0.75;;;0.60;;
13477;SDS011;12598;62.382;17.344;2023-02-01T01:34:37;1.05;;;0.50;;
13477;SDS011;12598;62.382;17.344;2023-02-01T01:35:39;1.00;;;0.40;;
13477;SDS011;12598;62.382;17.344;2023-02-01T01:36:41;0.52;;;0.28;;
13477;SDS011;12598;62.382;17.344;2023-02-01T01:37:43;0.63;;;0.40;;
13477;SDS011;12598;62.382;17.344;2023-02-01T01:38:45;0.77;;;0.43;;
13477;SDS011;12598;62.382;17.344;2023-02-01T01:39:47;0.55;;;0.38;;
13477;SDS011;12598;62.382;17.344;2023-02-01T01:40:48;0.50;;;0.40;;
13477;SDS011;12598;62.382;17.344;2023-02-01T01:41:53;0.52;;;0.40;;
13477;SDS011;12598;62.382;17.344;2023-02-01T01:42:58;0.88;;;0.35;;
13477;SDS011;12598;62.382;17.344;2023-02-01T01:44:02;0.50;;;0.30;;
13477;SDS011;12598;62.382;17.344;2023-02-01T01:45:24;0.68;;;0.30;;
13477;SDS011;12598;62.382;17.344;2023-02-01T01:46:35;1.40;;;0.40;;
13477;SDS011;12598;62.382;17.344;2023-02-01T01:47:40;0.50;;;0.40;;
13477;SDS011;12598;62.382;17.344;2023-02-01T01:48:48;0.57;;;0.40;;
13477;SDS011;12598;62.382;17.344;2023-02-01T01:49:52;0.85;;;0.40;;
13477;SDS011;12598;62.382;17.344;2023-02-01T01:50:57;0.60;;;0.30;;
13477;SDS011;12598;62.382;17.344;2023-02-01T01:52:04;0.50;;;0.30;;
13477;SDS011;12598;62.382;17.344;2023-02-01T01:53:08;1.15;;;0.43;;
13477;SDS011;12598;62.382;17.344;2023-02-01T01:54:16;1.67;;;0.45;;
13477;SDS011;12598;62.382;17.344;2023-02-01T01:55:22;0.82;;;0.40;;
13477;SDS011;12598;62.382;17.344;2023-02-01T01:56:26;0.75;;;0.35;;
13477;SDS011;12598;62.382;17.344;2023-02-01T01:57:31;0.70;;;0.35;;
13477;SDS011;12598;62.382;17.344;2023-02-01T01:58:37;0.70;;;0.38;;
13477;SDS011;12598;62.382;17.344;2023-02-01T01:59:39;0.60;;;0.30;;
13477;SDS011;12598;62.382;17.344;2023-02-01T02:00:45;1.75;;;0.60;;
13477;SDS011;12598;62.382;17.344;2023-02-01T02:01:48;0.68;;;0.38;;
13477;SDS011;12598;62.382;17.344;2023-02-01T02:02:53;0.57;;;0.30;;
13477;SDS011;12598;62.382;17.344;2023-02-01T02:03:58;0.57;;;0.30;;
13477;SDS011;12598;62.382;17.344;2023-02-01T02:05:02;0.40;;;0.32;;
13477;SDS011;12598;62.382;17.344;2023-02-01T02:06:05;0.98;;;0.40;;
13477;SDS011;12598;62.382;17.344;2023-02-01T02:07:23;0.70;;;0.28;;
13477;SDS011;12598;62.382;17.344;2023-02-01T02:08:28;0.40;;;0.30;;
13477;SDS011;12598;62.382;17.344;2023-02-01T02:09:30;0.93;;;0.30;;
13477;SDS011;12598;62.382;17.344;2023-02-01T02:10:32;0.60;;;0.45;;
13477;SDS011;12598;62.382;17.344;2023-02-01T02:11:53;0.60;;;0.30;;
13477;SDS011;12598;62.382;17.344;2023-02-01T02:12:55;0.90;;;0.52;;
13477;SDS011;12598;62.382;17.344;2023-02-01T02:13:56;0.85;;;0.57;;
13477;SDS011;12598;62.382;17.344;2023-02-01T02:14:59;1.17;;;0.75;;
13477;SDS011;12598;62.382;17.344;2023-02-01T02:18:22;1.05;;;0.77;;
13477;SDS011;12598;62.382;17.344;2023-02-01T02:20:55;0.70;;;0.57;;
13477;SDS011;12598;62.382;17.344;2023-02-01T02:26:25;0.70;;;0.40;;
13477;SDS011;12598;62.382;17.344;2023-02-01T02:29:14;0.95;;;0.73;;
13477;SDS011;12598;62.382;17.344;2023-02-01T02:43:39;0.52;;;0.40;;
13477;SDS011;12598;62.382;17.344;2023-02-01T02:46:46;1.55;;;0.50;;
13477;SDS011;12598;62.382;17.344;2023-02-01T02:48:16;0.55;;;0.40;;
13477;SDS011;12598;62.382;17.344;2023-02-01T02:49:25;0.82;;;0.40;;
13477;SDS011;12598;62.382;17.344;2023-02-01T02:52:31;0.73;;;0.40;;
13477;SDS011;12598;62.382;17.344;2023-02-01T02:55:27;0.65;;;0.30;;
13477;SDS011;12598;62.382;17.344;2023-02-01T02:56:32;1.23;;;0.40;;
13477;SDS011;12598;62.382;17.344;2023-02-01T02:57:53;0.60;;;0.30;;
13477;SDS011;12598;62.382;17.344;2023-02-01T02:59:17;0.98;;;0.43;;
13477;SDS011;12598;62.382;17.344;2023-02-01T03:00:41;0.55;;;0.38;;
13477;SDS011;12598;62.382;17.344;2023-02-01T03:02:03;0.50;;;0.32;;
13477;SDS011;12598;62.382;17.344;2023-02-01T03:03:25;0.40;;;0.30;;
13477;SDS011;12598;62.382;17.344;2023-02-01T03:04:45;0.80;;;0.40;;
13477;SDS011;12598;62.382;17.344;2023-02-01T03:05:48;0.65;;;0.57;;
13477;SDS011;12598;62.382;17.344;2023-02-01T03:06:54;0.30;;;0.30;;
13477;SDS011;12598;62.382;17.344;2023-02-01T03:08:03;0.43;;;0.40;;
13477;SDS011;12598;62.382;17.344;2023-02-01T03:09:13;1.42;;;0.57;;
13477;SDS011;12598;62.382;17.344;2023-02-01T03:10:24;1.15;;;0.60;;
13477;SDS011;12598;62.382;17.344;2023-02-01T03:11:34;1.00;;;0.68;;
13477;SDS011;12598;62.382;17.344;2023-02-01T03:12:59;0.98;;;0.40;;
13477;SDS011;12598;62.382;17.344;2023-02-01T03:14:05;0.47;;;0.40;;
13477;SDS011;12598;62.382;17.344;2023-02-01T03:15:08;0.55;;;0.40;;
13477;SDS011;12598;62.382;17.344;2023-02-01T03:17:19;0.60;;;0.40;;
13477;SDS011;12598;62.382;17.344;2023-02-01T03:18:32;0.82;;;0.60;;
13477;SDS011;12598;62.382;17.344;2023-02-01T03:19:43;0.95;;;0.60;;
13477;SDS011;12598;62.382;17.344;2023-02-01T03:20:51;0.93;;;0.60;;
13477;SDS011;12598;62.382;17.344;2023-02-01T03:22:13;0.55;;;0.35;;
13477;SDS011;12598;62.382;17.344;2023-02-01T03:23:18;0.38;;;0.32;;
13477;SDS011;12598;62.382;17.344;2023-02-01T03:26:00;0.50;;;0.40;;
13477;SDS011;12598;62.382;17.344;2023-02-01T03:27:23;1.10;;;0.45;;
13477;SDS011;12598;62.382;17.344;2023-02-01T03:28:29;0.70;;;0.40;;
13477;SDS011;12598;62.382;17.344;2023-02-01T03:29:45;1.10;;;0.65;;
13477;SDS011;12598;62.382;17.344;2023-02-01T03:31:07;0.30;;;0.28;;
13477;SDS011;12598;62.382;17.344;2023-02-01T03:32:09;0.60;;;0.38;;
13477;SDS011;12598;62.382;17.344;2023-02-01T03:33:14;0.60;;;0.47;;
13477;SDS011;12598;62.382;17.344;2023-02-01T03:34:25;0.50;;;0.30;;
13477;SDS011;12598;62.382;17.344;2023-02-01T03:36:49;1.30;;;0.47;;
13477;SDS011;12598;62.382;17.344;2023-02-01T03:38:01;0.80;;;0.30;;
13477;SDS011;12598;62.382;17.344;2023-02-01T03:40:15;0.95;;;0.40;;
13477;SDS011;12598;62.382;17.344;2023-02-01T03:42:38;0.43;;;0.30;;
13477;SDS011;12598;62.382;17.344;2023-02-01T03:43:53;1.58;;;0.40;;
13477;SDS011;12598;62.382;17.344;2023-02-01T03:45:04;0.57;;;0.30;;
13477;SDS011;12598;62.382;17.344;2023-02-01T03:46:12;1.20;;;0.50;;
13477;SDS011;12598;62.382;17.344;2023-02-01T03:47:21;0.70;;;0.40;;
13477;SDS011;12598;62.382;17.344;2023-02-01T03:48:27;0.70;;;0.40;;
13477;SDS011;12598;62.382;17.344;2023-02-01T03:49:35;0.43;;;0.30;;
13477;SDS011;12598;62.382;17.344;2023-02-01T03:50:43;0.70;;;0.40;;
13477;SDS011;12598;62.382;17.344;2023-02-01T03:51:50;0.63;;;0.38;;
13477;SDS011;12598;62.382;17.344;2023-02-01T03:54:07;0.43;;;0.30;;
13477;SDS011;12598;62.382;17.344;2023-02-01T03:55:14;0.40;;;0.30;;
13477;SDS011;12598;62.382;17.344;2023-02-01T03:56:19;1.08;;;0.50;;
13477;SDS011;12598;62.382;17.344;2023-02-01T03:57:26;0.52;;;0.52;;
13477;SDS011;12598;62.382;17.344;2023-02-01T03:58:31;0.68;;;0.47;;
13477;SDS011;12598;62.382;17.344;2023-02-01T03:59:33;0.77;;;0.50;;
13477;SDS011;12598;62.382;17.344;2023-02-01T04:00:35;0.80;;;0.68;;
13477;SDS011;12598;62.382;17.344;2023-02-01T04:01:37;0.60;;;0.50;;
13477;SDS011;12598;62.382;17.344;2023-02-01T04:02:38;1.50;;;0.50;;
13477;SDS011;12598;62.382;17.344;2023-02-01T04:03:40;0.75;;;0.52;;
13477;SDS011;12598;62.382;17.344;2023-02-01T04:04:43;0.80;;;0.57;;
13477;SDS011;12598;62.382;17.344;2023-02-01T04:05:49;0.85;;;0.60;;
13477;SDS011;12598;62.382;17.344;2023-02-01T04:06:51;1.13;;;0.50;;
13477;SDS011;12598;62.382;17.344;2023-02-01T04:07:54;0.57;;;0.50;;
13477;SDS011;12598;62.382;17.344;2023-02-01T04:08:56;0.55;;;0.47;;
13477;SDS011;12598;62.382;17.344;2023-02-01T04:09:58;0.30;;;0.30;;
13477;SDS011;12598;62.382;17.344;2023-02-01T04:10:59;0.68;;;0.32;;
13477;SDS011;12598;62.382;17.344;2023-02-01T04:12:01;0.60;;;0.40;;
13477;SDS011;12598;62.382;17.344;2023-02-01T04:13:03;0.63;;;0.55;;
13477;SDS011;12598;62.382;17.344;2023-02-01T04:14:05;0.60;;;0.40;;
13477;SDS011;12598;62.382;17.344;2023-02-01T04:15:07;0.57;;;0.40;;
13477;SDS011;12598;62.382;17.344;2023-02-01T04:16:10;0.57;;;0.45;;
13477;SDS011;12598;62.382;17.344;2023-02-01T04:17:12;0.40;;;0.38;;
13477;SDS011;12598;62.382;17.344;2023-02-01T04:18:13;1.20;;;0.52;;
13477;SDS011;12598;62.382;17.344;2023-02-01T04:19:15;0.70;;;0.50;;
13477;SDS011;12598;62.382;17.344;2023-02-01T04:20:17;0.60;;;0.50;;
13477;SDS011;12598;62.382;17.344;2023-02-01T04:21:19;0.60;;;0.50;;
13477;SDS011;12598;62.382;17.344;2023-02-01T04:22:21;0.80;;;0.50;;
13477;SDS011;12598;62.382;17.344;2023-02-01T04:23:23;0.50;;;0.30;;
13477;SDS011;12598;62.382;17.344;2023-02-01T04:24:25;0.68;;;0.38;;
13477;SDS011;12598;62.382;17.344;2023-02-01T04:25:26;0.75;;;0.60;;
13477;SDS011;12598;62.382;17.344;2023-02-01T04:26:28;0.57;;;0.40;;
13477;SDS011;12598;62.382;17.344;2023-02-01T04:27:30;0.47;;;0.40;;
13477;SDS011;12598;62.382;17.344;2023-02-01T04:28:32;0.95;;;0.50;;
13477;SDS011;12598;62.382;17.344;2023-02-01T04:29:34;1.40;;;0.50;;
13477;SDS011;12598;62.382;17.344;2023-02-01T04:30:36;0.40;;;0.40;;
13477;SDS011;12598;62.382;17.344;2023-02-01T04:31:38;0.60;;;0.50;;
13477;SDS011;12598;62.382;17.344;2023-02-01T04:32:40;0.82;;;0.57;;
13477;SDS011;12598;62.382;17.344;2023-02-01T04:33:42;0.90;;;0.50;;
13477;SDS011;12598;62.382;17.344;2023-02-01T04:34:45;0.60;;;0.50;;
13477;SDS011;12598;62.382;17.344;2023-02-01T04:35:47;1.05;;;0.30;;
13477;SDS011;12598;62.382;17.344;2023-02-01T04:36:49;1.95;;;0.50;;
13477;SDS011;12598;62.382;17.344;2023-02-01T04:37:51;1.63;;;0.50;;
13477;SDS011;12598;62.382;17.344;2023-02-01T04:38:53;0.60;;;0.40;;
13477;SDS011;12598;62.382;17.344;2023-02-01T04:39:54;0.50;;;0.40;;
13477;SDS011;12598;62.382;17.344;2023-02-01T04:40:56;0.57;;;0.40;;
13477;SDS011;12598;62.382;17.344;2023-02-01T04:41:58;0.63;;;0.40;;
13477;SDS011;12598;62.382;17.344;2023-02-01T04:43:00;1.48;;;0.50;;
13477;SDS011;12598;62.382;17.344;2023-02-01T04:44:02;0.80;;;0.40;;
13477;SDS011;12598;62.382;17.344;2023-02-01T04:45:04;1.10;;;0.38;;
13477;SDS011;12598;62.382;17.344;2023-02-01T04:46:07;1.02;;;0.50;;
13477;SDS011;12598;62.382;17.344;2023-02-01T04:47:09;0.70;;;0.40;;
13477;SDS011;12598;62.382;17.344;2023-02-01T04:48:11;0.93;;;0.45;;
13477;SDS011;12598;62.382;17.344;2023-02-01T04:49:13;0.70;;;0.45;;
13477;SDS011;12598;62.382;17.344;2023-02-01T04:50:15;0.90;;;0.50;;
13477;SDS011;12598;62.382;17.344;2023-02-01T04:51:17;0.60;;;0.60;;
13477;SDS011;12598;62.382;17.344;2023-02-01T04:52:19;0.70;;;0.50;;
13477;SDS011;12598;62.382;17.344;2023-02-01T04:53:21;1.00;;;0.50;;
13477;SDS011;12598;62.382;17.344;2023-02-01T04:54:23;0.73;;;0.50;;
13477;SDS011;12598;62.382;17.344;2023-02-01T04:55:25;0.73;;;0.40;;
13477;SDS011;12598;62.382;17.344;2023-02-01T04:56:27;0.98;;;0.40;;
13477;SDS011;12598;62.382;17.344;2023-02-01T04:57:28;0.60;;;0.30;;
13477;SDS011;12598;62.382;17.344;2023-02-01T04:58:30;0.85;;;0.50;;
13477;SDS011;12598;62.382;17.344;2023-02-01T04:59:32;1.02;;;0.50;;
13477;SDS011;12598;62.382;17.344;2023-02-01T05:00:34;0.50;;;0.50;;
13477;SDS011;12598;62.382;17.344;2023-02-01T05:01:36;0.60;;;0.55;;
13477;SDS011;12598;62.382;17.344;2023-02-01T05:02:38;0.57;;;0.40;;
13477;SDS011;12598;62.382;17.344;2023-02-01T05:03:40;0.65;;;0.50;;
13477;SDS011;12598;62.382;17.344;2023-02-01T05:04:42;0.57;;;0.47;;
13477;SDS011;12598;62.382;17.344;2023-02-01T05:05:46;0.60;;;0.55;;
13477;SDS011;12598;62.382;17.344;2023-02-01T05:06:49;0.73;;;0.60;;
13477;SDS011;12598;62.382;17.344;2023-02-01T05:07:51;0.57;;;0.50;;
13477;SDS011;12598;62.382;17.344;2023-02-01T05:08:52;0.75;;;0.40;;
13477;SDS011;12598;62.382;17.344;2023-02-01T05:09:54;0.60;;;0.40;;
13477;SDS011;12598;62.382;17.344;2023-02-01T05:10:56;0.68;;;0.50;;
13477;SDS011;12598;62.382;17.344;2023-02-01T05:11:58;0.50;;;0.45;;
13477;SDS011;12598;62.382;17.344;2023-02-01T05:13:18;0.50;;;0.40;;
13477;SDS011;12598;62.382;17.344;2023-02-01T05:14:38;0.50;;;0.32;;
13477;SDS011;12598;62.382;17.344;2023-02-01T05:15:40;0.60;;;0.45;;
13477;SDS011;12598;62.382;17.344;2023-02-01T05:16:42;0.70;;;0.50;;
13477;SDS011;12598;62.382;17.344;2023-02-01T05:17:44;1.10;;;0.50;;
13477;SDS011;12598;62.382;17.344;2023-02-01T05:18:46;1.00;;;0.50;;
13477;SDS011;12598;62.382;17.344;2023-02-01T05:19:48;0.80;;;0.60;;
13477;SDS011;12598;62.382;17.344;2023-02-01T05:20:50;0.55;;;0.45;;
13477;SDS011;12598;62.382;17.344;2023-02-01T05:21:51;0.45;;;0.40;;
13477;SDS011;12598;62.382;17.344;2023-02-01T05:22:53;0.40;;;0.40;;
13477;SDS011;12598;62.382;17.344;2023-02-01T05:23:55;0.73;;;0.47;;
13477;SDS011;12598;62.382;17.344;2023-02-01T05:25:15;1.08;;;0.50;;
13477;SDS011;12598;62.382;17.344;2023-02-01T05:26:17;0.90;;;0.40;;
13477;SDS011;12598;62.382;17.344;2023-02-01T05:27:19;0.52;;;0.43;;
13477;SDS011;12598;62.382;17.344;2023-02-01T05:28:20;0.80;;;0.25;;
13477;SDS011;12598;62.382;17.344;2023-02-01T05:29:22;1.17;;;0.60;;
13477;SDS011;12598;62.382;17.344;2023-02-01T05:30:24;0.52;;;0.32;;
13477;SDS011;12598;62.382;17.344;2023-02-01T05:31:26;0.60;;;0.50;;
13477;SDS011;12598;62.382;17.344;2023-02-01T05:32:28;0.57;;;0.40;;
13477;SDS011;12598;62.382;17.344;2023-02-01T05:33:30;1.05;;;0.52;;
13477;SDS011;12598;62.382;17.344;2023-02-01T05:34:32;0.52;;;0.30;;
13477;SDS011;12598;62.382;17.344;2023-02-01T05:35:34;0.93;;;0.50;;
13477;SDS011;12598;62.382;17.344;2023-02-01T05:36:36;1.60;;;0.40;;
13477;SDS011;12598;62.382;17.344;2023-02-01T05:37:37;1.48;;;0.68;;
13477;SDS011;12598;62.382;17.344;2023-02-01T05:38:39;0.93;;;0.55;;
13477;SDS011;12598;62.382;17.344;2023-02-01T05:39:42;1.55;;;0.45;;
13477;SDS011;12598;62.382;17.344;2023-02-01T05:40:44;0.77;;;0.50;;
13477;SDS011;12598;62.382;17.344;2023-02-01T05:41:51;1.33;;;0.70;;
13477;SDS011;12598;62.382;17.344;2023-02-01T05:42:52;0.55;;;0.50;;
13477;SDS011;12598;62.382;17.344;2023-02-01T05:43:54;1.35;;;0.40;;
13477;SDS011;12598;62.382;17.344;2023-02-01T05:44:56;0.98;;;0.57;;
13477;SDS011;12598;62.382;17.344;2023-02-01T05:45:58;0.95;;;0.60;;
13477;SDS011;12598;62.382;17.344;2023-02-01T05:47:00;0.90;;;0.60;;
13477;SDS011;12598;62.382;17.344;2023-02-01T05:48:02;1.33;;;0.70;;
13477;SDS011;12598;62.382;17.344;2023-02-01T05:49:04;0.70;;;0.50;;
13477;SDS011;12598;62.382;17.344;2023-02-01T05:50:06;0.98;;;0.60;;
13477;SDS011;12598;62.382;17.344;2023-02-01T05:51:09;1.17;;;0.40;;
13477;SDS011;12598;62.382;17.344;2023-02-01T05:52:12;1.48;;;0.60;;
13477;SDS011;12598;62.382;17.344;2023-02-01T05:53:14;1.30;;;0.63;;
13477;SDS011;12598;62.382;17.344;2023-02-01T05:54:16;1.55;;;0.77;;
13477;SDS011;12598;62.382;17.344;2023-02-01T05:55:17;1.63;;;0.57;;
13477;SDS011;12598;62.382;17.344;2023-02-01T05:56:19;2.45;;;0.68;;
13477;SDS011;12598;62.382;17.344;2023-02-01T05:57:21;0.98;;;0.70;;
13477;SDS011;12598;62.382;17.344;2023-02-01T05:58:23;2.10;;;0.70;;
13477;SDS011;12598;62.382;17.344;2023-02-01T05:59:25;1.33;;;0.43;;
13477;SDS011;12598;62.382;17.344;2023-02-01T06:00:27;0.70;;;0.47;;
13477;SDS011;12598;62.382;17.344;2023-02-01T06:01:29;1.08;;;0.52;;
13477;SDS011;12598;62.382;17.344;2023-02-01T06:02:31;1.58;;;0.90;;
13477;SDS011;12598;62.382;17.344;2023-02-01T06:03:32;1.52;;;0.60;;
13477;SDS011;12598;62.382;17.344;2023-02-01T06:04:34;1.83;;;0.70;;
13477;SDS011;12598;62.382;17.344;2023-02-01T06:05:36;0.75;;;0.57;;
13477;SDS011;12598;62.382;17.344;2023-02-01T06:06:38;1.00;;;0.70;;
13477;SDS011;12598;62.382;17.344;2023-02-01T06:07:40;2.00;;;0.90;;
13477;SDS011;12598;62.382;17.344;2023-02-01T06:08:42;2.03;;;1.10;;
13477;SDS011;12598;62.382;17.344;2023-02-01T06:09:44;1.30;;;0.77;;
13477;SDS011;12598;62.382;17.344;2023-02-01T06:10:46;2.13;;;1.10;;
13477;SDS011;12598;62.382;17.344;2023-02-01T06:11:48;1.40;;;0.85;;
13477;SDS011;12598;62.382;17.344;2023-02-01T06:12:50;1.67;;;1.10;;
13477;SDS011;12598;62.382;17.344;2023-02-01T06:13:51;1.85;;;1.08;;
13477;SDS011;12598;62.382;17.344;2023-02-01T06:14:53;1.48;;;1.00;;
13477;SDS011;12598;62.382;17.344;2023-02-01T06:15:55;1.83;;;1.20;;
13477;SDS011;12598;62.382;17.344;2023-02-01T06:16:59;1.35;;;1.10;;
13477;SDS011;12598;62.382;17.344;2023-02-01T06:18:01;1.73;;;1.05;;
13477;SDS011;12598;62.382;17.344;2023-02-01T06:19:03;2.13;;;1.05;;
13477;SDS011;12598;62.382;17.344;2023-02-01T06:20:05;1.27;;;1.00;;
13477;SDS011;12598;62.382;17.344;2023-02-01T06:21:08;1.15;;;1.00;;
13477;SDS011;12598;62.382;17.344;2023-02-01T06:22:10;1.83;;;1.00;;
13477;SDS011;12598;62.382;17.344;2023-02-01T06:23:12;1.85;;;1.05;;
13477;SDS011;12598;62.382;17.344;2023-02-01T06:24:15;1.52;;;0.85;;
13477;SDS011;12598;62.382;17.344;2023-02-01T06:25:17;2.58;;;0.75;;
13477;SDS011;12598;62.382;17.344;2023-02-01T06:26:19;1.33;;;0.90;;
13477;SDS011;12598;62.382;17.344;2023-02-01T06:27:22;1.17;;;0.88;;
13477;SDS011;12598;62.382;17.344;2023-02-01T06:28:24;0.90;;;0.80;;
13477;SDS011;12598;62.382;17.344;2023-02-01T06:29:26;0.95;;;0.65;;
13477;SDS011;12598;62.382;17.344;2023-02-01T06:30:28;1.52;;;0.90;;
13477;SDS011;12598;62.382;17.344;2023-02-01T06:31:33;1.25;;;0.70;;
13477;SDS011;12598;62.382;17.344;2023-02-01T06:32:35;1.75;;;0.95;;
13477;SDS011;12598;62.382;17.344;2023-02-01T06:36:48;1.05;;;0.60;;
13477;SDS011;12598;62.382;17.344;2023-02-01T06:37:50;0.93;;;0.50;;
13477;SDS011;12598;62.382;17.344;2023-02-01T06:38:52;1.58;;;0.75;;
13477;SDS011;12598;62.382;17.344;2023-02-01T06:39:54;1.10;;;0.60;;
13477;SDS011;12598;62.382;17.344;2023-02-01T06:40:57;0.88;;;0.50;;
13477;SDS011;12598;62.382;17.344;2023-02-01T06:42:00;1.05;;;0.47;;
13477;SDS011;12598;62.382;17.344;2023-02-01T06:43:02;1.63;;;0.75;;
13477;SDS011;12598;62.382;17.344;2023-02-01T06:44:03;0.85;;;0.60;;
13477;SDS011;12598;62.382;17.344;2023-02-01T06:45:05;1.33;;;0.70;;
13477;SDS011;12598;62.382;17.344;2023-02-01T06:46:09;0.75;;;0.50;;
13477;SDS011;12598;62.382;17.344;2023-02-01T06:47:13;2.35;;;0.60;;
13477;SDS011;12598;62.382;17.344;2023-02-01T06:48:15;0.88;;;0.60;;
13477;SDS011;12598;62.382;17.344;2023-02-01T06:49:17;1.00;;;0.65;;
13477;SDS011;12598;62.382;17.344;2023-02-01T06:50:21;0.60;;;0.55;;
13477;SDS011;12598;62.382;17.344;2023-02-01T06:51:25;1.17;;;0.60;;
13477;SDS011;12598;62.382;17.344;2023-02-01T06:52:27;1.13;;;0.50;;
13477;SDS011;12598;62.382;17.344;2023-02-01T06:53:30;0.40;;;0.40;;
13477;SDS011;12598;62.382;17.344;2023-02-01T06:54:32;1.00;;;0.65;;
13477;SDS011;12598;62.382;17.344;2023-02-01T06:55:35;0.50;;;0.30;;
13477;SDS011;12598;62.382;17.344;2023-02-01T06:56:37;0.75;;;0.55;;
13477;SDS011;12598;62.382;17.344;2023-02-01T06:57:40;1.00;;;0.55;;
13477;SDS011;12598;62.382;17.344;2023-02-01T06:58:41;0.98;;;0.63;;
13477;SDS011;12598;62.382;17.344;2023-02-01T06:59:43;0.98;;;0.50;;